sensor_id;sensor_type;location;lat;lon;timestamp;pressure;altitude;pressure_sealevel;temperature;humidity
33286;BME280;19656;50.096;20.014;2023-12-20T00:04:08;98459.85;;;10.23;37.42
33286;BME280;19656;50.096;20.014;2023-12-20T00:09:12;98456.98;;;10.16;37.62
33286;BME280;19656;50.096;20.014;2023-12-20T00:14:15;98453.44;;;10.11;37.75
33286;BME280;19656;50.096;20.014;2023-12-20T00:19:18;98450.07;;;10.06;38.04
33286;BME280;19656;50.096;20.014;2023-12-20T00:24:22;98443.08;;;10.04;38.21
33286;BME280;19656;50.096;20.014;2023-12-20T00:29:25;98444.11;;;10.04;38.33
33286;BME280;19656;50.096;20.014;2023-12-20T00:34:28;98439.32;;;10.02;38.36
33286;BME280;19656;50.096;20.014;2023-12-20T00:39:32;98423.12;;;10.01;38.43
33286;BME280;19656;50.096;20.014;2023-12-20T00:44:35;98420.82;;;9.98;38.55
33286;BME280;19656;50.096;20.014;2023-12-20T00:49:39;98412.96;;;9.91;38.65
33286;BME280;19656;50.096;20.014;2023-12-20T00:54:42;98406.98;;;9.86;38.58
33286;BME280;19656;50.096;20.014;2023-12-20T00:59:45;98411.84;;;9.87;38.65
33286;BME280;19656;50.096;20.014;2023-12-20T01:04:49;98407.67;;;9.91;38.41
33286;BME280;19656;50.096;20.014;2023-12-20T01:09:52;98408.55;;;9.91;37.99
33286;BME280;19656;50.096;20.014;2023-12-20T01:14:56;98406.16;;;9.97;37.72
33286;BME280;19656;50.096;20.014;2023-12-20T01:19:59;98407.23;;;10.05;37.20
33286;BME280;19656;50.096;20.014;2023-12-20T01:25:02;98392.54;;;10.07;36.89
33286;BME280;19656;50.096;20.014;2023-12-20T01:30:07;98386.56;;;10.09;36.70
33286;BME280;19656;50.096;20.014;2023-12-20T01:35:11;98382.35;;;10.13;36.58
33286;BME280;19656;50.096;20.014;2023-12-20T01:40:16;98365.73;;;10.13;36.65
33286;BME280;19656;50.096;20.014;2023-12-20T01:45:19;98348.45;;;10.12;36.64
33286;BME280;19656;50.096;20.014;2023-12-20T01:50:23;98336.30;;;10.10;36.65
33286;BME280;19656;50.096;20.014;2023-12-20T01:55:31;98329.14;;;10.06;36.75
33286;BME280;19656;50.096;20.014;2023-12-20T02:00:36;98316.77;;;10.06;36.85
33286;BME280;19656;50.096;20.014;2023-12-20T02:05:40;98312.51;;;10.06;37.05
33286;BME280;19656;50.096;20.014;2023-12-20T02:10:43;98302.59;;;10.01;37.15
33286;BME280;19656;50.096;20.014;2023-12-20T02:15:47;98302.83;;;9.95;37.03
33286;BME280;19656;50.096;20.014;2023-12-20T02:20:50;98296.11;;;9.90;36.90
33286;BME280;19656;50.096;20.014;2023-12-20T02:25:53;98292.92;;;9.87;36.73
33286;BME280;19656;50.096;20.014;2023-12-20T02:30:57;98291.59;;;9.86;36.76
33286;BME280;19656;50.096;20.014;2023-12-20T02:36:01;98291.50;;;9.85;36.60
33286;BME280;19656;50.096;20.014;2023-12-20T02:41:04;98283.48;;;9.83;36.69
33286;BME280;19656;50.096;20.014;2023-12-20T02:46:07;98278.84;;;9.79;36.77
33286;BME280;19656;50.096;20.014;2023-12-20T02:51:10;98274.44;;;9.71;36.88
33286;BME280;19656;50.096;20.014;2023-12-20T02:56:13;98274.80;;;9.66;36.75
33286;BME280;19656;50.096;20.014;2023-12-20T03:01:17;98287.21;;;9.68;36.49
33286;BME280;19656;50.096;20.014;2023-12-20T03:06:20;98286.34;;;9.70;36.24
33286;BME280;19656;50.096;20.014;2023-12-20T03:11:26;98287.44;;;9.72;35.93
33286;BME280;19656;50.096;20.014;2023-12-20T03:16:30;98285.89;;;9.74;35.90
33286;BME280;19656;50.096;20.014;2023-12-20T03:21:38;98281.92;;;9.81;35.79
33286;BME280;19656;50.096;20.014;2023-12-20T03:26:41;98275.20;;;9.83;35.71
33286;BME280;19656;50.096;20.014;2023-12-20T03:31:44;98272.01;;;9.85;35.75
33286;BME280;19656;50.096;20.014;2023-12-20T03:36:49;98265.73;;;9.89;35.60
33286;BME280;19656;50.096;20.014;2023-12-20T03:41:52;98279.83;;;9.90;35.57
33286;BME280;19656;50.096;20.014;2023-12-20T03:46:55;98286.90;;;9.90;35.76
33286;BME280;19656;50.096;20.014;2023-12-20T03:51:58;98290.38;;;9.91;35.85
33286;BME280;19656;50.096;20.014;2023-12-20T03:57:02;98293.06;;;9.90;35.77
33286;BME280;19656;50.096;20.014;2023-12-20T04:02:05;98285.27;;;9.95;35.79
33286;BME280;19656;50.096;20.014;2023-12-20T04:07:08;98278.46;;;9.99;35.81
33286;BME280;19656;50.096;20.014;2023-12-20T04:12:12;98269.15;;;9.95;35.99
33286;BME280;19656;50.096;20.014;2023-12-20T04:17:15;98275.91;;;9.92;36.03
33286;BME280;19656;50.096;20.014;2023-12-20T04:22:19;98283.02;;;9.92;36.01
33286;BME280;19656;50.096;20.014;2023-12-20T04:27:22;98276.15;;;9.97;35.90
33286;BME280;19656;50.096;20.014;2023-12-20T04:32:25;98273.13;;;9.99;35.83
33286;BME280;19656;50.096;20.014;2023-12-20T04:37:28;98278.46;;;10.01;35.81
33286;BME280;19656;50.096;20.014;2023-12-20T04:42:32;98275.36;;;9.95;36.01
33286;BME280;19656;50.096;20.014;2023-12-20T04:47:35;98282.89;;;9.92;36.42
33286;BME280;19656;50.096;20.014;2023-12-20T04:52:38;98283.48;;;9.81;37.02
33286;BME280;19656;50.096;20.014;2023-12-20T04:57:42;98290.86;;;9.69;38.01
33286;BME280;19656;50.096;20.014;2023-12-20T05:02:46;98298.38;;;9.58;38.70
33286;BME280;19656;50.096;20.014;2023-12-20T05:07:49;98303.35;;;9.50;39.88
33286;BME280;19656;50.096;20.014;2023-12-20T05:12:52;98302.08;;;9.38;41.02
33286;BME280;19656;50.096;20.014;2023-12-20T05:17:55;98300.69;;;9.37;42.40
33286;BME280;19656;50.096;20.014;2023-12-20T05:22:59;98301.38;;;9.27;44.48
33286;BME280;19656;50.096;20.014;2023-12-20T05:28:02;98301.14;;;9.08;46.63
33286;BME280;19656;50.096;20.014;2023-12-20T05:33:06;98302.05;;;9.02;48.50
33286;BME280;19656;50.096;20.014;2023-12-20T05:38:09;98291.41;;;8.89;50.43
33286;BME280;19656;50.096;20.014;2023-12-20T05:43:12;98284.89;;;8.81;52.21
33286;BME280;19656;50.096;20.014;2023-12-20T05:48:16;98289.87;;;8.75;53.29
33286;BME280;19656;50.096;20.014;2023-12-20T05:53:19;98289.52;;;8.62;54.52
33286;BME280;19656;50.096;20.014;2023-12-20T05:58:22;98287.39;;;8.46;56.06
33286;BME280;19656;50.096;20.014;2023-12-20T06:03:25;98287.58;;;8.37;56.53
33286;BME280;19656;50.096;20.014;2023-12-20T06:08:28;98286.17;;;8.32;57.21
33286;BME280;19656;50.096;20.014;2023-12-20T06:13:31;98297.67;;;8.15;58.24
33286;BME280;19656;50.096;20.014;2023-12-20T06:18:35;98311.23;;;8.01;58.97
33286;BME280;19656;50.096;20.014;2023-12-20T06:23:40;98314.98;;;7.93;59.79
33286;BME280;19656;50.096;20.014;2023-12-20T06:28:44;98311.98;;;7.90;60.20
33286;BME280;19656;50.096;20.014;2023-12-20T06:33:47;98312.35;;;7.73;61.17
33286;BME280;19656;50.096;20.014;2023-12-20T06:38:53;98315.23;;;7.60;61.86
33286;BME280;19656;50.096;20.014;2023-12-20T06:43:56;98317.77;;;7.53;62.22
33286;BME280;19656;50.096;20.014;2023-12-20T06:48:59;98310.05;;;7.50;63.25
33286;BME280;19656;50.096;20.014;2023-12-20T06:54:03;98314.55;;;7.45;63.95
33286;BME280;19656;50.096;20.014;2023-12-20T06:59:06;98308.29;;;7.35;64.37
33286;BME280;19656;50.096;20.014;2023-12-20T07:04:09;98310.45;;;7.26;65.13
33286;BME280;19656;50.096;20.014;2023-12-20T07:09:14;98315.98;;;7.19;65.49
33286;BME280;19656;50.096;20.014;2023-12-20T07:14:18;98315.58;;;7.17;65.71
33286;BME280;19656;50.096;20.014;2023-12-20T07:19:21;98316.69;;;7.13;66.23
33286;BME280;19656;50.096;20.014;2023-12-20T07:24:24;98324.84;;;7.06;66.27
33286;BME280;19656;50.096;20.014;2023-12-20T07:29:28;98325.32;;;7.04;66.44
33286;BME280;19656;50.096;20.014;2023-12-20T07:34:31;98322.98;;;7.20;66.57
33286;BME280;19656;50.096;20.014;2023-12-20T07:39:38;98325.67;;;7.25;66.35
33286;BME280;19656;50.096;20.014;2023-12-20T07:44:42;98331.94;;;7.23;66.35
33286;BME280;19656;50.096;20.014;2023-12-20T07:49:46;98331.23;;;7.15;66.68
33286;BME280;19656;50.096;20.014;2023-12-20T07:54:49;98333.58;;;7.16;66.68
33286;BME280;19656;50.096;20.014;2023-12-20T07:59:52;98334.91;;;7.27;66.88
33286;BME280;19656;50.096;20.014;2023-12-20T08:04:55;98341.86;;;7.29;66.60
33286;BME280;19656;50.096;20.014;2023-12-20T08:09:58;98342.64;;;7.36;66.08
33286;BME280;19656;50.096;20.014;2023-12-20T08:15:02;98352.40;;;7.44;65.94
33286;BME280;19656;50.096;20.014;2023-12-20T08:20:07;98349.94;;;7.38;65.98
33286;BME280;19656;50.096;20.014;2023-12-20T08:25:10;98348.57;;;7.28;66.33
33286;BME280;19656;50.096;20.014;2023-12-20T08:30:13;98344.92;;;7.25;66.53
33286;BME280;19656;50.096;20.014;2023-12-20T08:35:17;98338.20;;;7.16;66.59
33286;BME280;19656;50.096;20.014;2023-12-20T08:40:22;98339.27;;;7.10;66.93
33286;BME280;19656;50.096;20.014;2023-12-20T08:45:25;98335.10;;;7.00;67.42
33286;BME280;19656;50.096;20.014;2023-12-20T08:50:28;98340.88;;;7.01;67.60
33286;BME280;19656;50.096;20.014;2023-12-20T08:55:32;98338.67;;;6.99;67.91
33286;BME280;19656;50.096;20.014;2023-12-20T09:00:35;98335.60;;;6.97;68.18
33286;BME280;19656;50.096;20.014;2023-12-20T09:05:39;98349.49;;;6.95;68.34
33286;BME280;19656;50.096;20.014;2023-12-20T09:10:42;98345.16;;;6.97;68.38
33286;BME280;19656;50.096;20.014;2023-12-20T09:15:45;98344.46;;;7.02;68.45
33286;BME280;19656;50.096;20.014;2023-12-20T09:20:48;98344.65;;;7.11;68.34
33286;BME280;19656;50.096;20.014;2023-12-20T09:25:53;98339.73;;;7.20;68.04
33286;BME280;19656;50.096;20.014;2023-12-20T09:30:59;98335.16;;;7.08;68.13
33286;BME280;19656;50.096;20.014;2023-12-20T09:36:03;98335.59;;;7.01;68.49
33286;BME280;19656;50.096;20.014;2023-12-20T09:41:06;98333.95;;;6.89;69.25
33286;BME280;19656;50.096;20.014;2023-12-20T09:46:11;98326.63;;;6.82;69.03
33286;BME280;19656;50.096;20.014;2023-12-20T09:51:15;98318.23;;;6.90;69.00
33286;BME280;19656;50.096;20.014;2023-12-20T09:56:18;98313.16;;;6.89;68.96
33286;BME280;19656;50.096;20.014;2023-12-20T10:01:22;98307.94;;;6.94;69.03
33286;BME280;19656;50.096;20.014;2023-12-20T10:06:26;98305.66;;;6.97;69.04
33286;BME280;19656;50.096;20.014;2023-12-20T10:11:30;98300.11;;;7.04;68.94
33286;BME280;19656;50.096;20.014;2023-12-20T10:16:34;98298.80;;;6.99;68.91
33286;BME280;19656;50.096;20.014;2023-12-20T10:21:37;98295.23;;;6.85;69.42
33286;BME280;19656;50.096;20.014;2023-12-20T10:26:40;98297.59;;;6.84;69.17
33286;BME280;19656;50.096;20.014;2023-12-20T10:31:43;98292.20;;;6.80;69.14
33286;BME280;19656;50.096;20.014;2023-12-20T10:36:48;98295.91;;;6.77;69.48
33286;BME280;19656;50.096;20.014;2023-12-20T10:41:51;98292.70;;;6.77;69.25
33286;BME280;19656;50.096;20.014;2023-12-20T10:46:54;98293.71;;;6.75;69.16
33286;BME280;19656;50.096;20.014;2023-12-20T10:52:02;98286.16;;;6.77;69.22
33286;BME280;19656;50.096;20.014;2023-12-20T10:57:07;98277.77;;;6.82;69.12
33286;BME280;19656;50.096;20.014;2023-12-20T11:02:10;98275.50;;;6.85;68.87
33286;BME280;19656;50.096;20.014;2023-12-20T11:07:19;98272.96;;;6.92;69.06
33286;BME280;19656;50.096;20.014;2023-12-20T11:13:28;98271.15;;;6.99;69.02
33286;BME280;19656;50.096;20.014;2023-12-20T11:18:15;98272.17;;;6.96;69.10
33286;BME280;19656;50.096;20.014;2023-12-20T11:23:19;98272.10;;;6.86;69.41
33286;BME280;19656;50.096;20.014;2023-12-20T11:28:26;98272.36;;;6.81;69.93
33286;BME280;19656;50.096;20.014;2023-12-20T11:33:39;98268.30;;;6.88;70.09
33286;BME280;19656;50.096;20.014;2023-12-20T11:38:54;98269.04;;;6.99;70.09
33286;BME280;19656;50.096;20.014;2023-12-20T11:43:58;98264.27;;;6.99;70.13
33286;BME280;19656;50.096;20.014;2023-12-20T11:49:04;98258.06;;;7.02;70.02
33286;BME280;19656;50.096;20.014;2023-12-20T11:54:07;98252.97;;;6.93;70.14
33286;BME280;19656;50.096;20.014;2023-12-20T11:59:12;98260.36;;;6.94;70.70
33286;BME280;19656;50.096;20.014;2023-12-20T12:04:25;98261.83;;;6.93;70.73
33286;BME280;19656;50.096;20.014;2023-12-20T12:09:28;98259.81;;;6.94;70.67
33286;BME280;19656;50.096;20.014;2023-12-20T12:14:32;98259.09;;;6.97;70.89
33286;BME280;19656;50.096;20.014;2023-12-20T12:19:35;98262.16;;;6.99;70.53
33286;BME280;19656;50.096;20.014;2023-12-20T12:24:41;98259.86;;;6.99;70.54
33286;BME280;19656;50.096;20.014;2023-12-20T12:30:05;98255.10;;;6.99;70.56
33286;BME280;19656;50.096;20.014;2023-12-20T12:35:10;98253.06;;;6.94;70.48
33286;BME280;19656;50.096;20.014;2023-12-20T12:40:15;98255.29;;;6.96;70.36
33286;BME280;19656;50.096;20.014;2023-12-20T12:45:19;98255.84;;;7.01;70.06
33286;BME280;19656;50.096;20.014;2023-12-20T12:50:22;98257.02;;;7.05;70.19
33286;BME280;19656;50.096;20.014;2023-12-20T12:55:26;98259.61;;;7.09;70.27
33286;BME280;19656;50.096;20.014;2023-12-20T13:00:29;98262.77;;;7.09;70.07
33286;BME280;19656;50.096;20.014;2023-12-20T13:05:32;98262.47;;;7.05;70.22
33286;BME280;19656;50.096;20.014;2023-12-20T13:10:41;98253.98;;;6.97;70.39
33286;BME280;19656;50.096;20.014;2023-12-20T13:15:44;98254.89;;;6.97;70.78
33286;BME280;19656;50.096;20.014;2023-12-20T13:20:54;98267.20;;;7.06;70.50
33286;BME280;19656;50.096;20.014;2023-12-20T13:25:57;98267.59;;;7.05;70.44
33286;BME280;19656;50.096;20.014;2023-12-20T13:31:01;98271.61;;;7.09;70.22
33286;BME280;19656;50.096;20.014;2023-12-20T13:36:05;98274.55;;;7.07;70.07
33286;BME280;19656;50.096;20.014;2023-12-20T13:41:09;98277.38;;;7.06;70.05
33286;BME280;19656;50.096;20.014;2023-12-20T13:46:13;98275.08;;;7.01;69.95
33286;BME280;19656;50.096;20.014;2023-12-20T13:51:17;98275.83;;;7.06;69.78
33286;BME280;19656;50.096;20.014;2023-12-20T13:56:21;98274.52;;;7.10;69.34
33286;BME280;19656;50.096;20.014;2023-12-20T14:01:25;98273.35;;;7.21;69.02
33286;BME280;19656;50.096;20.014;2023-12-20T14:06:29;98276.30;;;7.22;68.74
33286;BME280;19656;50.096;20.014;2023-12-20T14:11:33;98276.13;;;7.27;68.62
33286;BME280;19656;50.096;20.014;2023-12-20T14:16:36;98273.95;;;7.34;68.13
33286;BME280;19656;50.096;20.014;2023-12-20T14:21:39;98271.73;;;7.33;68.00
33286;BME280;19656;50.096;20.014;2023-12-20T14:26:42;98269.63;;;7.41;67.76
33286;BME280;19656;50.096;20.014;2023-12-20T14:31:45;98271.14;;;7.42;67.48
33286;BME280;19656;50.096;20.014;2023-12-20T14:36:49;98274.10;;;7.41;67.53
33286;BME280;19656;50.096;20.014;2023-12-20T14:41:52;98275.73;;;7.43;67.74
33286;BME280;19656;50.096;20.014;2023-12-20T14:46:57;98275.93;;;7.48;67.55
33286;BME280;19656;50.096;20.014;2023-12-20T14:52:00;98279.59;;;7.45;67.62
33286;BME280;19656;50.096;20.014;2023-12-20T14:57:03;98282.77;;;7.46;67.62
33286;BME280;19656;50.096;20.014;2023-12-20T15:02:07;98281.46;;;7.50;67.50
33286;BME280;19656;50.096;20.014;2023-12-20T15:07:11;98279.08;;;7.62;67.29
33286;BME280;19656;50.096;20.014;2023-12-20T15:12:15;98275.09;;;7.70;66.97
33286;BME280;19656;50.096;20.014;2023-12-20T15:17:18;98275.25;;;7.67;66.77
33286;BME280;19656;50.096;20.014;2023-12-20T15:22:21;98283.43;;;7.69;66.64
33286;BME280;19656;50.096;20.014;2023-12-20T15:27:25;98283.86;;;7.62;66.69
33286;BME280;19656;50.096;20.014;2023-12-20T15:32:28;98285.73;;;7.52;66.90
33286;BME280;19656;50.096;20.014;2023-12-20T15:37:31;98286.61;;;7.41;67.10
33286;BME280;19656;50.096;20.014;2023-12-20T15:42:34;98284.55;;;7.25;67.30
33286;BME280;19656;50.096;20.014;2023-12-20T15:47:39;98279.83;;;7.19;67.62
33286;BME280;19656;50.096;20.014;2023-12-20T15:52:42;98280.02;;;7.12;67.59
33286;BME280;19656;50.096;20.014;2023-12-20T15:57:46;98287.22;;;7.10;67.65
33286;BME280;19656;50.096;20.014;2023-12-20T16:02:57;98280.36;;;7.04;67.79
33286;BME280;19656;50.096;20.014;2023-12-20T16:08:00;98276.71;;;7.06;68.00
33286;BME280;19656;50.096;20.014;2023-12-20T16:13:04;98280.27;;;7.05;67.99
33286;BME280;19656;50.096;20.014;2023-12-20T16:18:07;98281.70;;;7.05;67.86
33286;BME280;19656;50.096;20.014;2023-12-20T16:23:13;98281.45;;;7.03;67.72
33286;BME280;19656;50.096;20.014;2023-12-20T16:28:16;98281.75;;;6.95;67.80
33286;BME280;19656;50.096;20.014;2023-12-20T16:33:20;98279.18;;;6.85;68.09
33286;BME280;19656;50.096;20.014;2023-12-20T16:38:23;98282.45;;;6.80;68.05
33286;BME280;19656;50.096;20.014;2023-12-20T16:43:27;98272.50;;;6.76;68.20
33286;BME280;19656;50.096;20.014;2023-12-20T16:48:30;98268.63;;;6.79;67.97
33286;BME280;19656;50.096;20.014;2023-12-20T16:53:33;98271.15;;;6.81;68.00
33286;BME280;19656;50.096;20.014;2023-12-20T16:58:36;98268.27;;;6.88;67.81
33286;BME280;19656;50.096;20.014;2023-12-20T17:03:39;98269.04;;;6.83;67.30
33286;BME280;19656;50.096;20.014;2023-12-20T17:08:42;98260.38;;;6.78;67.40
33286;BME280;19656;50.096;20.014;2023-12-20T17:13:46;98254.08;;;6.72;67.17
33286;BME280;19656;50.096;20.014;2023-12-20T17:18:50;98242.17;;;6.61;67.26
33286;BME280;19656;50.096;20.014;2023-12-20T17:23:53;98248.41;;;6.57;67.17
33286;BME280;19656;50.096;20.014;2023-12-20T17:28:56;98246.27;;;6.54;67.16
33286;BME280;19656;50.096;20.014;2023-12-20T17:33:59;98244.84;;;6.55;66.94
33286;BME280;19656;50.096;20.014;2023-12-20T17:39:03;98242.22;;;6.54;66.74
33286;BME280;19656;50.096;20.014;2023-12-20T17:44:07;98237.05;;;6.52;66.47
33286;BME280;19656;50.096;20.014;2023-12-20T17:49:10;98238.34;;;6.51;66.41
33286;BME280;19656;50.096;20.014;2023-12-20T17:54:14;98237.02;;;6.50;66.12
33286;BME280;19656;50.096;20.014;2023-12-20T17:59:17;98234.33;;;6.54;65.99
33286;BME280;19656;50.096;20.014;2023-12-20T18:04:20;98235.05;;;6.54;65.78
33286;BME280;19656;50.096;20.014;2023-12-20T18:09:23;98233.25;;;6.51;65.55
33286;BME280;19656;50.096;20.014;2023-12-20T18:14:27;98233.14;;;6.56;65.47
33286;BME280;19656;50.096;20.014;2023-12-20T18:19:30;98232.59;;;6.57;65.05
33286;BME280;19656;50.096;20.014;2023-12-20T18:24:34;98228.88;;;6.60;65.45
33286;BME280;19656;50.096;20.014;2023-12-20T18:29:37;98238.02;;;6.66;64.66
33286;BME280;19656;50.096;20.014;2023-12-20T18:34:40;98237.04;;;6.64;64.38
33286;BME280;19656;50.096;20.014;2023-12-20T18:39:43;98236.04;;;6.63;64.39
33286;BME280;19656;50.096;20.014;2023-12-20T18:44:47;98231.75;;;6.64;64.36
33286;BME280;19656;50.096;20.014;2023-12-20T18:49:50;98238.39;;;6.66;64.21
33286;BME280;19656;50.096;20.014;2023-12-20T18:54:53;98237.66;;;6.66;64.12
33286;BME280;19656;50.096;20.014;2023-12-20T18:59:56;98231.42;;;6.70;63.81
33286;BME280;19656;50.096;20.014;2023-12-20T19:05:04;98236.08;;;6.69;63.77
33286;BME280;19656;50.096;20.014;2023-12-20T19:10:08;98245.65;;;6.83;63.86
33286;BME280;19656;50.096;20.014;2023-12-20T19:15:11;98251.98;;;6.83;62.98
33286;BME280;19656;50.096;20.014;2023-12-20T19:20:14;98242.66;;;6.80;62.66
33286;BME280;19656;50.096;20.014;2023-12-20T19:25:18;98251.26;;;6.83;63.59
33286;BME280;19656;50.096;20.014;2023-12-20T19:30:21;98245.12;;;6.88;62.22
33286;BME280;19656;50.096;20.014;2023-12-20T19:35:25;98245.70;;;6.94;61.96
33286;BME280;19656;50.096;20.014;2023-12-20T19:40:29;98240.34;;;6.92;61.34
33286;BME280;19656;50.096;20.014;2023-12-20T19:45:32;98229.58;;;6.90;61.08
33286;BME280;19656;50.096;20.014;2023-12-20T19:50:35;98219.09;;;6.85;60.81
33286;BME280;19656;50.096;20.014;2023-12-20T19:55:39;98198.39;;;6.83;60.58
33286;BME280;19656;50.096;20.014;2023-12-20T20:00:43;98212.39;;;6.79;60.45
33286;BME280;19656;50.096;20.014;2023-12-20T20:05:57;98223.46;;;6.82;60.71
33286;BME280;19656;50.096;20.014;2023-12-20T20:11:01;98225.06;;;6.85;60.29
33286;BME280;19656;50.096;20.014;2023-12-20T20:16:04;98231.09;;;6.81;60.28
33286;BME280;19656;50.096;20.014;2023-12-20T20:21:07;98226.46;;;6.82;60.42
33286;BME280;19656;50.096;20.014;2023-12-20T20:26:11;98225.48;;;6.84;60.44
33286;BME280;19656;50.096;20.014;2023-12-20T20:31:14;98230.42;;;6.87;60.24
33286;BME280;19656;50.096;20.014;2023-12-20T20:36:18;98224.04;;;6.96;61.13
33286;BME280;19656;50.096;20.014;2023-12-20T20:41:21;98226.71;;;7.04;59.93
33286;BME280;19656;50.096;20.014;2023-12-20T20:46:25;98224.02;;;6.94;59.80
33286;BME280;19656;50.096;20.014;2023-12-20T20:51:30;98222.02;;;6.86;59.99
33286;BME280;19656;50.096;20.014;2023-12-20T20:56:33;98207.61;;;6.82;60.08
33286;BME280;19656;50.096;20.014;2023-12-20T21:01:37;98201.03;;;6.83;60.06
33286;BME280;19656;50.096;20.014;2023-12-20T21:06:41;98210.23;;;6.82;60.18
33286;BME280;19656;50.096;20.014;2023-12-20T21:11:44;98206.73;;;6.82;60.12
33286;BME280;19656;50.096;20.014;2023-12-20T21:16:47;98213.71;;;6.80;60.13
33286;BME280;19656;50.096;20.014;2023-12-20T21:21:51;98208.15;;;6.73;60.26
33286;BME280;19656;50.096;20.014;2023-12-20T21:26:54;98212.45;;;6.72;60.12
33286;BME280;19656;50.096;20.014;2023-12-20T21:31:58;98212.54;;;6.70;60.28
33286;BME280;19656;50.096;20.014;2023-12-20T21:37:01;98193.01;;;6.61;60.34
33286;BME280;19656;50.096;20.014;2023-12-20T21:42:04;98187.92;;;6.55;60.53
33286;BME280;19656;50.096;20.014;2023-12-20T21:47:08;98191.75;;;6.53;60.52
33286;BME280;19656;50.096;20.014;2023-12-20T21:52:11;98188.08;;;6.46;60.68
33286;BME280;19656;50.096;20.014;2023-12-20T21:57:14;98198.56;;;6.42;60.84
33286;BME280;19656;50.096;20.014;2023-12-20T22:02:17;98206.60;;;6.39;60.88
33286;BME280;19656;50.096;20.014;2023-12-20T22:07:20;98219.63;;;6.37;60.85
33286;BME280;19656;50.096;20.014;2023-12-20T22:12:24;98215.25;;;6.43;61.07
33286;BME280;19656;50.096;20.014;2023-12-20T22:17:27;98211.80;;;6.45;60.92
33286;BME280;19656;50.096;20.014;2023-12-20T22:22:32;98206.52;;;6.38;60.78
33286;BME280;19656;50.096;20.014;2023-12-20T22:27:35;98200.80;;;6.33;61.12
33286;BME280;19656;50.096;20.014;2023-12-20T22:32:38;98196.68;;;6.26;61.40
33286;BME280;19656;50.096;20.014;2023-12-20T22:37:41;98193.53;;;6.28;61.66
33286;BME280;19656;50.096;20.014;2023-12-20T22:42:47;98190.14;;;6.29;61.50
33286;BME280;19656;50.096;20.014;2023-12-20T22:47:50;98184.40;;;6.31;61.72
33286;BME280;19656;50.096;20.014;2023-12-20T22:52:54;98180.30;;;6.32;61.67
33286;BME280;19656;50.096;20.014;2023-12-20T22:57:57;98177.00;;;6.31;61.79
33286;BME280;19656;50.096;20.014;2023-12-20T23:03:00;98164.69;;;6.24;61.83
33286;BME280;19656;50.096;20.014;2023-12-20T23:08:04;98162.70;;;6.25;62.13
33286;BME280;19656;50.096;20.014;2023-12-20T23:13:07;98156.41;;;6.28;62.13
33286;BME280;19656;50.096;20.014;2023-12-20T23:18:10;98153.87;;;6.29;62.05
33286;BME280;19656;50.096;20.014;2023-12-20T23:23:14;98157.19;;;6.29;62.14
33286;BME280;19656;50.096;20.014;2023-12-20T23:28:17;98155.08;;;6.35;62.10
33286;BME280;19656;50.096;20.014;2023-12-20T23:33:20;98157.70;;;6.38;62.15
33286;BME280;19656;50.096;20.014;2023-12-20T23:38:24;98149.86;;;6.43;62.08
33286;BME280;19656;50.096;20.014;2023-12-20T23:43:27;98141.73;;;6.47;62.05
33286;BME280;19656;50.096;20.014;2023-12-20T23:48:31;98134.69;;;6.46;62.05
33286;BME280;19656;50.096;20.014;2023-12-20T23:53:36;98137.12;;;6.47;62.14
33286;BME280;19656;50.096;20.014;2023-12-20T23:58:40;98128.67;;;6.50;62.08
